Time;durP1;ratioP1;P1;durP2;ratioP2;P2;SDS_P1;SDS_P2;PMS_P1;PMS_P2;Temp;Humidity;BMP_temperature;BMP_pressure;BME280_temperature;BME280_humidity;BME280_pressure;Samples;Min_cycle;Max_cycle;Signal;HPM_P1;HPM_P2
2023/01/05 00:00:14;;;;;;;3.07;1.60;;;;;16.50;100426.00;;;;2079453;28;20712;-54
2023/01/05 00:01:15;;;;;;;2.83;1.20;;;;;16.50;100426.00;;;;2079639;28;20308;-54
2023/01/05 00:02:15;;;;;;;2.80;1.47;;;;;16.50;100424.00;;;;2078312;28;20244;-54
2023/01/05 00:03:15;;;;;;;2.47;1.20;;;;;16.50;100430.00;;;;2079467;28;20283;-53
2023/01/05 00:04:16;;;;;;;2.47;1.37;;;;;16.50;100439.00;;;;2078949;28;20213;-54
2023/01/05 00:05:16;;;;;;;3.67;1.30;;;;;16.50;100436.00;;;;2077349;28;20213;-53
2023/01/05 00:06:17;;;;;;;3.07;1.47;;;;;16.50;100441.00;;;;2071223;28;20313;-54
2023/01/05 00:07:17;;;;;;;2.60;1.60;;;;;16.50;100430.00;;;;2071189;28;20229;-54
2023/01/05 00:08:17;;;;;;;3.47;1.30;;;;;16.50;100429.00;;;;2071253;28;20216;-54
2023/01/05 00:09:18;;;;;;;3.10;1.37;;;;;16.50;100428.00;;;;2071149;28;20210;-54
2023/01/05 00:22:33;;;;;;;3.38;1.25;;;;;16.50;100432.00;;;;2061328;28;20223;-53
2023/01/05 00:23:33;;;;;;;4.03;1.50;;;;;16.50;100439.00;;;;2068600;28;20379;-55
2023/01/05 00:24:34;;;;;;;4.07;1.47;;;;;16.50;100439.00;;;;2078508;28;20265;-53
2023/01/05 00:25:38;;;;;;;4.23;1.43;;;;;16.50;100432.00;;;;2078825;28;20225;-54
2023/01/05 00:26:39;;;;;;;2.22;1.40;;;;;16.50;100437.00;;;;2078926;28;20217;-54
2023/01/05 00:27:40;;;;;;;2.37;1.47;;;;;16.50;100435.00;;;;2079317;28;20738;-54
2023/01/05 00:28:40;;;;;;;2.40;1.10;;;;;16.50;100437.00;;;;2079330;28;20789;-54
2023/01/05 00:29:40;;;;;;;2.13;0.97;;;;;16.50;100454.00;;;;2079387;28;21036;-54
2023/01/05 00:30:42;;;;;;;2.40;1.37;;;;;16.30;100439.00;;;;2079284;28;20994;-53
2023/01/05 00:31:42;;;;;;;4.55;1.70;;;;;16.40;100446.00;;;;2078873;28;20296;-54
2023/01/05 00:32:43;;;;;;;2.20;1.23;;;;;16.50;100443.00;;;;2078384;28;20213;-54
2023/01/05 00:33:43;;;;;;;2.17;1.40;;;;;16.50;100438.00;;;;2078984;28;20225;-54
2023/01/05 00:34:43;;;;;;;2.40;1.50;;;;;16.50;100437.00;;;;2079426;28;20297;-54
2023/01/05 00:35:44;;;;;;;2.87;1.50;;;;;16.50;100443.00;;;;2074368;28;20215;-54
2023/01/05 00:36:44;;;;;;;2.20;1.23;;;;;16.50;100450.00;;;;2076051;28;20210;-53
2023/01/05 00:37:44;;;;;;;2.57;1.20;;;;;16.50;100441.00;;;;2078938;28;20248;-53
2023/01/05 00:38:45;;;;;;;3.40;1.33;;;;;16.50;100441.00;;;;2079582;28;20213;-55
2023/01/05 00:39:45;;;;;;;4.00;1.53;;;;;16.40;100452.00;;;;2079462;28;20214;-53
2023/01/05 00:40:45;;;;;;;3.43;1.70;;;;;16.50;100447.00;;;;2078506;28;20217;-54
2023/01/05 00:41:46;;;;;;;2.77;1.30;;;;;16.50;100445.00;;;;2079065;28;20242;-54
2023/01/05 00:42:46;;;;;;;2.60;1.40;;;;;16.50;100447.00;;;;2078888;28;20713;-54
2023/01/05 00:43:47;;;;;;;2.20;1.27;;;;;16.50;100453.00;;;;2078551;28;20616;-53
2023/01/05 00:44:47;;;;;;;2.67;1.40;;;;;16.50;100449.00;;;;2078881;28;20213;-53
2023/01/05 00:45:47;;;;;;;3.67;1.50;;;;;16.50;100441.00;;;;2077866;28;20214;-53
2023/01/05 00:46:48;;;;;;;3.10;1.63;;;;;16.50;100448.00;;;;2079220;28;20245;-53
2023/01/05 00:47:50;;;;;;;2.80;1.47;;;;;16.50;100454.00;;;;2079299;28;20270;-53
2023/01/05 00:48:50;;;;;;;2.95;1.20;;;;;16.50;100403.00;;;;2077621;28;20217;-53
2023/01/05 00:49:51;;;;;;;2.43;1.40;;;;;16.50;100457.00;;;;2079458;28;20244;-53
2023/01/05 00:50:51;;;;;;;4.97;1.70;;;;;16.50;100458.00;;;;2079489;28;20638;-52
2023/01/05 00:51:51;;;;;;;2.60;1.20;;;;;16.50;100452.00;;;;2077709;28;20737;-53
2023/01/05 00:52:52;;;;;;;2.93;1.27;;;;;16.50;100453.00;;;;2079066;28;20217;-53
2023/01/05 00:53:52;;;;;;;2.60;1.10;;;;;16.50;100450.00;;;;2079230;28;20210;-53
2023/01/05 00:54:52;;;;;;;3.90;1.47;;;;;16.50;100456.00;;;;2078607;28;20257;-53
2023/01/05 00:55:57;;;;;;;3.70;1.60;;;;;16.50;100457.00;;;;2078679;28;20246;-53
2023/01/05 00:56:57;;;;;;;3.10;1.40;;;;;16.50;100453.00;;;;2079292;28;20198;-53
2023/01/05 00:57:57;;;;;;;2.60;1.10;;;;;16.50;100454.00;;;;2079459;28;20222;-53
2023/01/05 00:58:58;;;;;;;2.87;1.13;;;;;16.50;100452.00;;;;2079289;28;20224;-53
2023/01/05 00:59:58;;;;;;;2.60;1.53;;;;;16.50;100455.00;;;;2079537;28;20237;-54
2023/01/05 01:00:58;;;;;;;2.73;1.30;;;;;16.50;100455.00;;;;2079481;28;20210;-53
2023/01/05 01:01:59;;;;;;;2.77;1.13;;;;;16.50;100454.00;;;;2077130;28;20259;-53
2023/01/05 01:02:59;;;;;;;2.90;1.30;;;;;16.50;100454.00;;;;2079433;28;20296;-53
2023/01/05 01:03:59;;;;;;;2.93;1.20;;;;;16.50;100455.00;;;;2079156;28;20205;-54
2023/01/05 01:05:00;;;;;;;2.20;1.33;;;;;16.50;100460.00;;;;2078856;28;20205;-53
2023/01/05 01:06:00;;;;;;;2.50;1.30;;;;;16.50;100451.00;;;;2078712;28;20205;-54
2023/01/05 01:07:01;;;;;;;4.10;1.87;;;;;16.50;100456.00;;;;2079132;28;20227;-53
2023/01/05 01:08:01;;;;;;;4.57;1.40;;;;;16.50;100456.00;;;;2078990;28;20213;-53
2023/01/05 01:09:01;;;;;;;3.47;1.50;;;;;16.50;100451.00;;;;2079329;28;20468;-54
2023/01/05 01:10:02;;;;;;;3.50;1.50;;;;;16.50;100459.00;;;;2079126;28;20233;-53
2023/01/05 01:11:06;;;;;;;2.63;1.13;;;;;16.50;100463.00;;;;2079358;28;20693;-53
2023/01/05 01:12:06;;;;;;;3.05;1.45;;;;;16.50;100457.00;;;;2076802;28;20230;-53
2023/01/05 01:13:06;;;;;;;3.13;1.30;;;;;16.50;100461.00;;;;2079258;28;20201;-54
2023/01/05 01:14:07;;;;;;;2.87;1.33;;;;;16.50;100460.00;;;;2079069;28;20268;-53
2023/01/05 01:15:08;;;;;;;1.90;1.30;;;;;16.50;100452.00;;;;2078534;28;20209;-52
2023/01/05 01:16:10;;;;;;;3.22;1.58;;;;;16.50;100458.00;;;;2079140;28;20293;-53
2023/01/05 01:17:10;;;;;;;2.85;1.45;;;;;16.50;100457.00;;;;2078592;28;20213;-54
2023/01/05 01:18:10;;;;;;;2.43;1.40;;;;;16.50;100436.00;;;;2078069;28;20209;-53
2023/01/05 01:19:13;;;;;;;3.57;1.53;;;;;16.50;100454.00;;;;2079199;28;20268;-53
2023/01/05 01:20:13;;;;;;;3.70;1.40;;;;;16.50;100459.00;;;;2079237;28;20209;-53
2023/01/05 01:21:14;;;;;;;4.50;1.60;;;;;16.50;100450.00;;;;2079221;28;20295;-52
2023/01/05 01:22:14;;;;;;;4.07;1.80;;;;;16.40;100452.00;;;;2077785;28;20648;-53
2023/01/05 01:23:14;;;;;;;3.40;1.47;;;;;16.50;100450.00;;;;2078981;28;20217;-53
2023/01/05 01:24:16;;;;;;;3.50;1.50;;;;;16.50;100446.00;;;;2078693;28;20244;-53
2023/01/05 01:25:16;;;;;;;2.78;1.60;;;;;16.50;100444.00;;;;2079095;28;20217;-53
2023/01/05 01:26:17;;;;;;;3.63;1.57;;;;;16.50;100455.00;;;;2079107;28;20216;-53
2023/01/05 01:27:17;;;;;;;2.90;1.40;;;;;16.50;100447.00;;;;2079251;28;20278;-54
2023/01/05 01:28:17;;;;;;;2.20;1.27;;;;;16.50;100439.00;;;;2079053;28;20242;-53
2023/01/05 01:29:18;;;;;;;3.20;1.77;;;;;16.50;100445.00;;;;2078947;28;20268;-53
2023/01/05 01:30:18;;;;;;;2.20;1.27;;;;;16.50;100444.00;;;;2079004;28;20220;-53
2023/01/05 01:31:19;;;;;;;2.00;1.20;;;;;16.50;100450.00;;;;2078868;28;20300;-57
2023/01/05 01:32:19;;;;;;;2.20;1.03;;;;;16.50;100451.00;;;;2076669;28;20217;-54
2023/01/05 01:33:19;;;;;;;2.63;1.30;;;;;16.50;100456.00;;;;2077748;28;20221;-55
2023/01/05 01:34:20;;;;;;;3.50;1.50;;;;;16.50;100449.00;;;;2077418;28;20819;-55
2023/01/05 01:35:20;;;;;;;2.70;1.27;;;;;16.50;100450.00;;;;2077844;28;21104;-55
2023/01/05 01:36:20;;;;;;;2.37;1.20;;;;;16.40;100464.00;;;;2078618;28;20214;-55
2023/01/05 01:37:21;;;;;;;2.67;1.60;;;;;16.50;100463.00;;;;2078455;28;20226;-54
2023/01/05 01:38:21;;;;;;;5.70;1.57;;;;;16.50;100450.00;;;;2078556;28;20220;-54
2023/01/05 01:39:21;;;;;;;4.50;1.60;;;;;16.50;100463.00;;;;2078680;28;20222;-55
2023/01/05 01:40:22;;;;;;;2.23;1.00;;;;;16.50;100467.00;;;;2078540;28;20209;-54
2023/01/05 01:41:22;;;;;;;4.73;1.37;;;;;16.50;100465.00;;;;2074977;28;20263;-54
2023/01/05 01:42:22;;;;;;;3.23;1.10;;;;;16.50;100469.00;;;;2077004;28;20210;-54
2023/01/05 01:43:43;;;;;;;3.73;1.40;;;;;16.50;100468.00;;;;2078476;28;20252;-54
2023/01/05 01:44:47;;;;;;;3.25;1.45;;;;;16.50;100474.00;;;;2078402;28;20213;-54
2023/01/05 01:45:47;;;;;;;2.85;1.30;;;;;16.50;100476.00;;;;2078447;28;20218;-53
2023/01/05 01:46:47;;;;;;;3.00;1.60;;;;;16.50;100475.00;;;;2078412;28;20218;-53
2023/01/05 01:47:58;;;;;;;2.20;1.40;;;;;16.50;100475.00;;;;2078297;28;20709;-53
2023/01/05 01:49:00;;;;;;;3.70;1.40;;;;;16.50;100466.00;;;;2072713;28;20225;-54
2023/01/05 01:50:16;;;;;;;3.45;1.35;;;;;16.50;100469.00;;;;2060713;28;20298;-53
2023/01/05 01:51:21;;;;;;;3.05;1.15;;;;;16.50;100475.00;;;;2063149;28;20686;-54
2023/01/05 01:52:21;;;;;;;2.63;1.30;;;;;16.50;100479.00;;;;2073232;28;20700;-54
2023/01/05 01:53:29;;;;;;;2.17;1.00;;;;;16.50;100484.00;;;;2077833;28;20222;-54
2023/01/05 01:54:29;;;;;;;2.38;1.13;;;;;16.50;100484.00;;;;2076619;28;20276;-54
2023/01/05 01:55:30;;;;;;;3.57;1.40;;;;;16.50;100484.00;;;;2074699;28;20222;-54
2023/01/05 01:56:34;;;;;;;2.30;1.30;;;;;16.50;100484.00;;;;2078394;28;20237;-54
2023/01/05 01:57:34;;;;;;;5.03;1.40;;;;;16.50;100478.00;;;;2077691;28;20328;-54
2023/01/05 01:58:35;;;;;;;2.50;1.20;;;;;16.50;100476.00;;;;2069375;28;20211;-54
2023/01/05 01:59:35;;;;;;;3.77;1.70;;;;;16.50;100486.00;;;;2077626;28;20775;-53
2023/01/05 02:00:37;;;;;;;2.97;1.40;;;;;16.50;100493.00;;;;2077341;28;20749;-54
2023/01/05 02:01:38;;;;;;;2.63;1.27;;;;;16.50;100486.00;;;;2061463;28;20207;-54
2023/01/05 02:02:38;;;;;;;2.47;1.43;;;;;16.50;100490.00;;;;2060210;28;20714;-53
2023/01/05 02:03:38;;;;;;;2.43;1.17;;;;;16.40;100496.00;;;;2077758;28;20209;-54
2023/01/05 02:04:39;;;;;;;2.03;1.27;;;;;16.50;100484.00;;;;2077197;28;20220;-53
2023/01/05 02:05:39;;;;;;;3.07;1.50;;;;;16.50;100489.00;;;;2060745;28;20207;-53
2023/01/05 02:06:39;;;;;;;2.20;1.17;;;;;16.50;100488.00;;;;2069547;28;20230;-53
2023/01/05 02:07:43;;;;;;;3.00;1.27;;;;;16.50;100494.00;;;;2078392;28;20555;-54
2023/01/05 02:08:43;;;;;;;2.63;1.20;;;;;16.50;100493.00;;;;2078744;28;20202;-53
2023/01/05 02:09:44;;;;;;;2.83;1.47;;;;;16.50;100497.00;;;;2078788;28;20214;-54
2023/01/05 02:10:59;;;;;;;3.23;1.40;;;;;16.50;100497.00;;;;2076279;28;20214;-54
2023/01/05 02:12:05;;;;;;;4.03;1.13;;;;;16.50;100493.00;;;;2072439;28;20218;-54
2023/01/05 02:13:17;;;;;;;4.40;1.38;;;;;16.50;100483.00;;;;2070462;28;20214;-54
2023/01/05 02:14:33;;;;;;;3.50;1.52;;;;;16.50;100489.00;;;;2070188;28;20297;-54
2023/01/05 02:15:43;;;;;;;2.83;1.33;;;;;16.50;100490.00;;;;2078382;28;20815;-54
2023/01/05 02:17:08;;;;;;;2.55;1.65;;;;;16.50;100492.00;;;;2077782;28;20202;-54
2023/01/05 02:18:31;;;;;;;3.15;1.70;;;;;16.50;100497.00;;;;2066972;28;20213;-53
2023/01/05 02:19:50;;;;;;;3.33;1.10;;;;;16.50;100492.00;;;;2067809;28;20260;-55
2023/01/05 02:20:59;;;;;;;2.88;1.20;;;;;16.50;100506.00;;;;2070076;28;20221;-54
2023/01/05 02:22:15;;;;;;;3.53;1.67;;;;;16.50;100502.00;;;;2076451;28;20709;-54
2023/01/05 02:23:24;;;;;;;2.55;1.35;;;;;16.50;100497.00;;;;2078164;28;20220;-53
2023/01/05 02:24:49;;;;;;;2.00;1.20;;;;;16.50;100498.00;;;;2078106;28;20272;-53
2023/01/05 02:26:09;;;;;;;2.28;1.20;;;;;16.50;100489.00;;;;2069289;28;20206;-54
2023/01/05 02:27:19;;;;;;;3.60;1.50;;;;;16.50;100491.00;;;;2068937;28;20730;-54
2023/01/05 02:28:50;;;;;;;2.38;1.27;;;;;16.50;100499.00;;;;2067509;28;21072;-54
2023/01/05 02:30:20;;;;;;;2.75;1.23;;;;;16.50;100489.00;;;;2077647;28;20279;-54
2023/01/05 02:31:22;;;;;;;3.40;1.52;;;;;16.50;100505.00;;;;2066520;28;20222;-54
2023/01/05 02:32:25;;;;;;;2.92;1.10;;;;;16.50;100505.00;;;;2062491;28;20829;-54
2023/01/05 02:33:31;;;;;;;2.60;1.00;;;;;16.50;100504.00;;;;2061879;28;20675;-53
2023/01/05 02:34:51;;;;;;;3.70;1.33;;;;;16.50;100510.00;;;;2072796;28;20221;-54
2023/01/05 02:36:07;;;;;;;3.33;1.40;;;;;16.50;100508.00;;;;2069725;28;20218;-54
2023/01/05 02:37:14;;;;;;;3.28;1.40;;;;;16.50;100503.00;;;;2067888;28;20206;-54
2023/01/05 02:38:33;;;;;;;3.42;1.20;;;;;16.50;100512.00;;;;2062392;28;20595;-53
2023/01/05 02:39:40;;;;;;;2.97;1.63;;;;;16.50;100499.00;;;;2068057;28;20229;-55
2023/01/05 02:40:46;;;;;;;4.40;1.30;;;;;16.50;100505.00;;;;2053290;28;20219;-54
2023/01/05 02:42:11;;;;;;;2.10;1.58;;;;;16.50;100494.00;;;;2061170;28;20223;-53
2023/01/05 02:43:14;;;;;;;3.00;1.30;;;;;16.50;100507.00;;;;2064824;28;20218;-54
2023/01/05 02:44:17;;;;;;;4.70;1.67;;;;;16.50;100510.00;;;;2063074;28;20203;-54
2023/01/05 02:45:19;;;;;;;2.65;1.55;;;;;16.50;100518.00;;;;2062401;28;20731;-54
2023/01/05 02:46:20;;;;;;;2.40;1.30;;;;;16.50;100512.00;;;;2059812;28;20704;-53
2023/01/05 02:47:23;;;;;;;3.17;1.37;;;;;16.50;100509.00;;;;2067803;28;20309;-54
2023/01/05 02:48:23;;;;;;;3.25;1.38;;;;;16.50;100507.00;;;;2076792;28;20304;-54
2023/01/05 02:49:24;;;;;;;2.23;1.37;;;;;16.50;100500.00;;;;2077734;28;20400;-54
2023/01/05 02:50:35;;;;;;;2.30;1.10;;;;;16.50;100467.00;;;;2077707;28;20248;-54
2023/01/05 02:51:37;;;;;;;3.17;1.40;;;;;16.50;100508.00;;;;2077159;28;20300;-54
2023/01/05 02:53:02;;;;;;;2.45;1.60;;;;;16.50;100516.00;;;;2068686;28;20218;-53
2023/01/05 02:54:09;;;;;;;4.57;1.42;;;;;16.50;100499.00;;;;2077919;28;20263;-54
2023/01/05 02:55:11;;;;;;;3.22;1.42;;;;;16.50;100514.00;;;;2064021;28;20876;-54
2023/01/05 02:56:19;;;;;;;2.88;1.25;;;;;16.50;100501.00;;;;2045623;28;20255;-53
2023/01/05 02:57:45;;;;;;;3.75;1.63;;;;;16.50;100510.00;;;;2052004;28;20212;-54
2023/01/05 02:58:47;;;;;;;2.92;1.40;;;;;16.50;100519.00;;;;2067083;28;20305;-53
2023/01/05 02:59:50;;;;;;;3.70;1.30;;;;;16.50;100506.00;;;;2077952;28;20221;-54
2023/01/05 03:00:53;;;;;;;3.90;1.20;;;;;16.50;100516.00;;;;2069448;28;20222;-53
2023/01/05 03:01:57;;;;;;;2.25;1.02;;;;;16.50;100502.00;;;;2061113;28;20214;-54
2023/01/05 03:03:07;;;;;;;3.45;1.25;;;;;16.50;100500.00;;;;2069922;28;20215;-53
2023/01/05 03:04:12;;;;;;;2.30;1.10;;;;;16.50;100501.00;;;;2076774;28;20206;-53
2023/01/05 03:05:14;;;;;;;4.15;1.73;;;;;16.50;100507.00;;;;2077152;28;20217;-54
2023/01/05 03:06:34;;;;;;;4.30;1.42;;;;;16.50;100507.00;;;;2061418;28;20222;-54
2023/01/05 03:07:37;;;;;;;4.95;1.92;;;;;16.50;100499.00;;;;2067187;28;20222;-53
2023/01/05 03:08:39;;;;;;;3.58;1.38;;;;;16.50;100509.00;;;;2078006;28;20214;-54
2023/01/05 03:09:40;;;;;;;2.78;1.52;;;;;16.50;100514.00;;;;2069221;28;20218;-53
2023/01/05 03:13:47;;;;;;;3.88;1.48;;;;;16.50;100477.00;;;;2076235;28;20218;-54
2023/01/05 03:14:53;;;;;;;2.53;1.33;;;;;16.50;100516.00;;;;2071693;28;20218;-53
2023/01/05 03:16:00;;;;;;;2.85;1.35;;;;;16.50;100513.00;;;;2070379;28;20210;-54
2023/01/05 03:17:01;;;;;;;3.13;1.73;;;;;16.50;100519.00;;;;2069895;28;20257;-54
2023/01/05 03:18:06;;;;;;;3.10;1.53;;;;;16.50;100521.00;;;;2069940;28;20248;-53
2023/01/05 03:20:31;;;;;;;2.50;1.15;;;;;16.50;100518.00;;;;2077310;28;20214;-53
2023/01/05 03:35:34;;;;;;;2.15;1.20;;;;;16.50;100524.00;;;;2076809;28;20205;-54
2023/01/05 03:36:39;;;;;;;3.45;1.45;;;;;16.50;100521.00;;;;2076104;28;20557;-53
2023/01/05 03:38:22;;;;;;;2.30;1.25;;;;;16.50;100523.00;;;;2069142;28;20218;-53
2023/01/05 03:39:25;;;;;;;2.97;1.50;;;;;16.50;100524.00;;;;2070008;28;20213;-53
2023/01/05 03:40:27;;;;;;;2.60;1.35;;;;;16.50;100526.00;;;;2061575;28;20265;-54
2023/01/05 03:41:28;;;;;;;2.30;1.17;;;;;16.50;100528.00;;;;2058329;28;20266;-54
2023/01/05 03:42:28;;;;;;;2.63;1.20;;;;;16.50;100511.00;;;;2059931;28;20211;-53
2023/01/05 03:43:31;;;;;;;2.60;1.33;;;;;16.50;100518.00;;;;2069441;28;20213;-53
2023/01/05 03:44:34;;;;;;;2.42;1.35;;;;;16.50;100522.00;;;;2076942;28;20225;-53
2023/01/05 03:45:44;;;;;;;3.92;1.30;;;;;16.50;100524.00;;;;2069650;28;20258;-53
2023/01/05 03:46:45;;;;;;;2.75;1.40;;;;;16.50;100509.00;;;;2055047;28;20222;-54
2023/01/05 03:47:45;;;;;;;3.00;1.63;;;;;16.50;100523.00;;;;2069275;28;20218;-54
2023/01/05 03:48:46;;;;;;;2.63;1.43;;;;;16.50;100528.00;;;;2077259;28;20221;-54
2023/01/05 03:49:46;;;;;;;3.93;1.50;;;;;16.50;100522.00;;;;2077926;28;20214;-54
2023/01/05 03:50:46;;;;;;;3.43;1.50;;;;;16.50;100522.00;;;;2069130;28;20732;-54
2023/01/05 03:51:47;;;;;;;4.13;1.57;;;;;16.50;100534.00;;;;2068465;28;20722;-54
2023/01/05 03:52:47;;;;;;;3.43;1.40;;;;;16.50;100530.00;;;;2077305;28;20232;-54
2023/01/05 03:53:47;;;;;;;3.00;1.40;;;;;16.50;100537.00;;;;2077941;28;20267;-54
2023/01/05 03:54:48;;;;;;;2.10;1.40;;;;;16.50;100525.00;;;;2077819;28;20252;-53
2023/01/05 03:55:48;;;;;;;1.90;1.17;;;;;16.50;100521.00;;;;2075975;28;20236;-53
2023/01/05 03:56:48;;;;;;;2.10;1.27;;;;;16.50;100524.00;;;;2078183;28;21181;-53
2023/01/05 03:57:49;;;;;;;3.40;1.30;;;;;16.50;100524.00;;;;2077297;28;20717;-53
2023/01/05 03:58:49;;;;;;;3.53;1.50;;;;;16.50;100518.00;;;;2077266;28;20240;-53
2023/01/05 03:59:49;;;;;;;2.40;1.30;;;;;16.50;100523.00;;;;2078176;28;20288;-54
2023/01/05 04:00:50;;;;;;;2.30;1.17;;;;;16.50;100531.00;;;;2078159;28;20287;-53
2023/01/05 04:01:50;;;;;;;2.97;1.70;;;;;16.50;100524.00;;;;2077007;28;20221;-52
2023/01/05 04:02:51;;;;;;;4.87;1.77;;;;;16.50;100532.00;;;;2077810;28;20756;-53
2023/01/05 04:03:51;;;;;;;4.10;1.63;;;;;16.50;100476.00;;;;2076966;28;20221;-53
2023/01/05 04:04:51;;;;;;;2.53;1.50;;;;;16.50;100536.00;;;;2077262;28;20658;-53
2023/01/05 04:05:52;;;;;;;3.50;1.50;;;;;16.50;100520.00;;;;2078013;28;20214;-54
2023/01/05 04:06:52;;;;;;;2.80;1.50;;;;;16.50;100522.00;;;;2077946;28;20218;-53
2023/01/05 04:07:52;;;;;;;4.43;1.40;;;;;16.50;100521.00;;;;2078117;28;20244;-52
2023/01/05 04:08:53;;;;;;;3.43;1.40;;;;;16.50;100517.00;;;;2078296;28;20206;-53
2023/01/05 04:09:53;;;;;;;3.40;1.33;;;;;16.30;100526.00;;;;2078100;28;20210;-54
2023/01/05 04:10:54;;;;;;;2.43;1.20;;;;;16.50;100522.00;;;;2070890;28;20324;-53
2023/01/05 04:11:55;;;;;;;2.50;1.50;;;;;16.50;100530.00;;;;2071043;28;20583;-53
2023/01/05 04:12:56;;;;;;;2.50;1.30;;;;;16.50;100519.00;;;;2077864;28;20217;-54
2023/01/05 04:13:56;;;;;;;4.50;1.60;;;;;16.50;100527.00;;;;2077996;28;20217;-53
2023/01/05 04:14:56;;;;;;;4.00;1.47;;;;;16.50;100530.00;;;;2077915;28;20495;-53
2023/01/05 04:15:57;;;;;;;2.67;1.40;;;;;16.50;100533.00;;;;2077902;28;20216;-54
2023/01/05 04:16:57;;;;;;;3.03;1.40;;;;;16.50;100537.00;;;;2077861;28;20686;-52
2023/01/05 04:17:57;;;;;;;3.40;1.70;;;;;16.50;100534.00;;;;2078003;28;20220;-54
2023/01/05 04:18:58;;;;;;;2.90;1.40;;;;;16.50;100538.00;;;;2075373;28;20247;-54
2023/01/05 04:19:58;;;;;;;2.10;1.30;;;;;16.50;100531.00;;;;2077114;28;20205;-53
2023/01/05 04:20:58;;;;;;;3.73;1.40;;;;;16.50;100526.00;;;;2077927;28;20221;-54
2023/01/05 04:21:59;;;;;;;2.87;1.40;;;;;16.50;100546.00;;;;2076654;28;20296;-53
2023/01/05 04:22:59;;;;;;;4.07;1.70;;;;;16.50;100537.00;;;;2077941;28;20308;-53
2023/01/05 04:23:59;;;;;;;1.63;1.00;;;;;16.50;100533.00;;;;2077613;28;20272;-54
2023/01/05 04:25:00;;;;;;;4.47;1.50;;;;;16.50;100529.00;;;;2077654;28;20213;-52
2023/01/05 04:26:00;;;;;;;2.17;1.30;;;;;16.50;100541.00;;;;2078093;28;20249;-53
2023/01/05 04:27:00;;;;;;;3.63;1.40;;;;;16.50;100532.00;;;;2077978;28;20222;-54
2023/01/05 04:28:01;;;;;;;3.33;1.43;;;;;16.50;100542.00;;;;2077960;28;20228;-54
2023/01/05 04:29:01;;;;;;;2.60;1.40;;;;;16.50;100537.00;;;;2077833;28;20210;-53
2023/01/05 04:30:02;;;;;;;2.53;1.20;;;;;16.50;100537.00;;;;2077994;28;20213;-53
2023/01/05 04:31:02;;;;;;;2.40;1.50;;;;;16.50;100537.00;;;;2079293;28;20217;-53
2023/01/05 04:32:03;;;;;;;2.80;1.37;;;;;16.50;100531.00;;;;2077993;28;20395;-53
2023/01/05 04:33:03;;;;;;;3.20;1.50;;;;;16.50;100536.00;;;;2078688;28;20245;-53
2023/01/05 04:34:03;;;;;;;3.40;1.27;;;;;16.50;100539.00;;;;2079303;28;20205;-53
2023/01/05 04:35:04;;;;;;;3.00;1.20;;;;;16.50;100540.00;;;;2078749;28;20244;-53
2023/01/05 04:36:05;;;;;;;3.67;1.20;;;;;16.50;100537.00;;;;2079623;28;20218;-53
2023/01/05 04:37:06;;;;;;;3.42;1.40;;;;;16.50;100539.00;;;;2078941;28;20708;-54
2023/01/05 04:38:06;;;;;;;3.10;1.40;;;;;16.50;100543.00;;;;2079438;28;20209;-53
2023/01/05 04:39:07;;;;;;;2.23;1.30;;;;;16.50;100542.00;;;;2079269;28;20303;-53
2023/01/05 04:40:07;;;;;;;3.73;1.50;;;;;16.50;100535.00;;;;2079187;28;20213;-53
2023/01/05 04:41:08;;;;;;;2.50;1.20;;;;;16.50;100537.00;;;;2079186;28;20208;-54
2023/01/05 04:42:08;;;;;;;3.17;1.33;;;;;16.50;100531.00;;;;2078250;28;20336;-54
2023/01/05 04:43:08;;;;;;;1.83;1.10;;;;;16.50;100541.00;;;;2079525;28;20228;-52
2023/01/05 04:44:09;;;;;;;2.53;1.37;;;;;16.30;100547.00;;;;2079469;28;20206;-52
2023/01/05 04:45:09;;;;;;;3.67;1.50;;;;;16.50;100543.00;;;;2078050;28;20244;-53
2023/01/05 04:46:10;;;;;;;2.10;1.07;;;;;16.50;100540.00;;;;2079294;28;20702;-53
2023/01/05 04:47:10;;;;;;;2.60;1.50;;;;;16.50;100550.00;;;;2079142;28;20253;-53
2023/01/05 04:48:10;;;;;;;2.60;1.30;;;;;16.50;100546.00;;;;2079422;28;20716;-53
2023/01/05 04:49:11;;;;;;;3.30;1.40;;;;;16.50;100551.00;;;;2078319;28;20693;-53
2023/01/05 04:50:11;;;;;;;3.90;2.77;;;;;16.50;100557.00;;;;2078642;28;20691;-53
2023/01/05 04:51:11;;;;;;;2.80;1.47;;;;;16.50;100550.00;;;;2079390;28;20577;-53
2023/01/05 04:52:12;;;;;;;2.83;1.30;;;;;16.50;100556.00;;;;2077929;28;20210;-53
2023/01/05 04:53:12;;;;;;;2.27;1.27;;;;;16.50;100560.00;;;;2079272;28;20220;-53
2023/01/05 04:54:12;;;;;;;4.80;1.50;;;;;16.50;100553.00;;;;2079305;28;20255;-53
2023/01/05 04:55:13;;;;;;;3.97;1.43;;;;;16.50;100556.00;;;;2077990;28;20214;-52
2023/01/05 04:56:13;;;;;;;2.27;1.20;;;;;16.50;100564.00;;;;2078640;28;20225;-53
2023/01/05 04:57:13;;;;;;;2.60;1.13;;;;;16.50;100554.00;;;;2079336;28;20257;-53
2023/01/05 04:58:14;;;;;;;2.67;1.20;;;;;16.50;100554.00;;;;2079223;28;20572;-54
2023/01/05 04:59:14;;;;;;;2.03;1.03;;;;;16.50;100547.00;;;;2079007;28;20668;-53
2023/01/05 05:00:14;;;;;;;3.63;1.37;;;;;16.50;100555.00;;;;2079473;28;20213;-53
2023/01/05 05:01:15;;;;;;;2.13;1.30;;;;;16.50;100556.00;;;;2078945;28;20217;-52
2023/01/05 05:02:15;;;;;;;3.37;1.10;;;;;16.50;100553.00;;;;2077845;28;20213;-54
2023/01/05 05:03:15;;;;;;;3.50;1.87;;;;;16.50;100552.00;;;;2079318;28;20275;-53
2023/01/05 05:04:16;;;;;;;2.97;1.23;;;;;16.50;100559.00;;;;2079197;28;20227;-53
2023/01/05 05:05:16;;;;;;;3.97;1.63;;;;;16.50;100553.00;;;;2079048;28;20317;-53
2023/01/05 05:06:16;;;;;;;2.40;1.30;;;;;16.50;100556.00;;;;2078224;28;20214;-53
2023/01/05 05:07:17;;;;;;;1.83;1.17;;;;;16.50;100567.00;;;;2079342;28;20288;-52
2023/01/05 05:08:17;;;;;;;3.23;1.67;;;;;16.50;100553.00;;;;2079396;28;20213;-53
2023/01/05 05:09:18;;;;;;;3.00;1.40;;;;;16.50;100561.00;;;;2079323;28;20209;-53
2023/01/05 05:10:18;;;;;;;2.67;1.53;;;;;16.50;100556.00;;;;2078380;28;20729;-52
2023/01/05 05:11:19;;;;;;;3.30;1.37;;;;;16.50;100567.00;;;;2078876;28;20906;-53
2023/01/05 05:12:19;;;;;;;2.83;1.23;;;;;16.50;100560.00;;;;2077785;28;20246;-53
2023/01/05 05:13:19;;;;;;;2.70;1.30;;;;;16.50;100566.00;;;;2079195;28;20574;-54
2023/01/05 05:14:20;;;;;;;2.77;1.03;;;;;16.50;100571.00;;;;2079099;28;20210;-53
2023/01/05 05:15:20;;;;;;;3.83;1.70;;;;;16.50;100562.00;;;;2078972;28;20375;-53
2023/01/05 05:16:20;;;;;;;2.93;1.33;;;;;16.50;100572.00;;;;2078696;28;20305;-53
2023/01/05 05:17:21;;;;;;;3.17;1.40;;;;;16.50;100564.00;;;;2079183;28;20987;-53
2023/01/05 05:18:21;;;;;;;2.73;1.50;;;;;16.50;100570.00;;;;2079253;28;20275;-54
2023/01/05 05:19:21;;;;;;;3.00;1.30;;;;;16.50;100573.00;;;;2078502;28;20748;-53
2023/01/05 05:20:22;;;;;;;2.43;1.37;;;;;16.50;100573.00;;;;2077767;28;21083;-53
2023/01/05 05:21:22;;;;;;;3.90;2.10;;;;;16.50;100580.00;;;;2079183;28;20872;-53
2023/01/05 05:22:22;;;;;;;3.40;1.73;;;;;16.50;100573.00;;;;2077615;28;20644;-53
2023/01/05 05:23:23;;;;;;;4.70;1.67;;;;;16.50;100570.00;;;;2079126;28;20725;-53
2023/01/05 05:24:23;;;;;;;2.47;1.27;;;;;16.50;100571.00;;;;2079092;28;20214;-53
2023/01/05 05:25:23;;;;;;;3.90;2.20;;;;;16.40;100577.00;;;;2078887;28;20347;-53
2023/01/05 05:26:24;;;;;;;2.90;1.27;;;;;16.50;100571.00;;;;2078736;28;20213;-53
2023/01/05 05:27:24;;;;;;;3.60;1.50;;;;;16.50;100582.00;;;;2078889;28;20225;-53
2023/01/05 05:28:27;;;;;;;3.83;1.20;;;;;16.50;100583.00;;;;2079083;28;20229;-53
2023/01/05 05:29:27;;;;;;;2.70;1.30;;;;;16.50;100570.00;;;;2079147;28;20579;-53
2023/01/05 05:30:27;;;;;;;2.60;1.23;;;;;16.50;100583.00;;;;2078809;28;20228;-53
2023/01/05 05:31:28;;;;;;;2.30;1.10;;;;;16.50;100580.00;;;;2079009;28;20217;-53
2023/01/05 05:32:28;;;;;;;1.57;1.00;;;;;16.50;100578.00;;;;2077599;28;20686;-54
2023/01/05 05:33:29;;;;;;;2.97;1.30;;;;;16.50;100589.00;;;;2079037;28;20642;-52
2023/01/05 05:34:29;;;;;;;1.70;1.20;;;;;16.40;100592.00;;;;2077945;28;20487;-53
2023/01/05 05:35:29;;;;;;;3.30;1.33;;;;;16.50;100591.00;;;;2078835;28;20241;-53
2023/01/05 05:36:30;;;;;;;2.40;1.30;;;;;16.50;100581.00;;;;2078164;28;20586;-58
2023/01/05 05:37:30;;;;;;;3.03;1.20;;;;;16.50;100581.00;;;;2078818;28;20217;-55
2023/01/05 05:38:30;;;;;;;2.67;1.50;;;;;16.50;100590.00;;;;2078775;28;20220;-54
2023/01/05 05:39:31;;;;;;;3.13;1.50;;;;;16.50;100583.00;;;;2078800;28;20217;-54
2023/01/05 05:40:31;;;;;;;2.70;1.57;;;;;16.50;100588.00;;;;2078718;28;20336;-53